createdAt,value
2018-11-04T00:02:36.321Z,4.48
2018-11-04T00:05:52.292Z,4.68
2018-11-04T00:09:09.351Z,4.77
2018-11-04T00:12:25.615Z,4.63
2018-11-04T00:15:44.475Z,4.64
2018-11-04T00:19:01.094Z,4.68
2018-11-04T00:22:17.055Z,4.38
2018-11-04T00:25:33.716Z,4.59
2018-11-04T00:28:49.468Z,4.45
2018-11-04T00:32:05.259Z,4.89
2018-11-04T00:38:46.265Z,4.84
2018-11-04T00:41:51.117Z,5.06
2018-11-04T00:45:07.517Z,5.01
2018-11-04T00:48:23.971Z,4.92
2018-11-04T00:51:39.997Z,4.81
2018-11-04T00:54:56.720Z,4.68
2018-11-04T01:01:30.205Z,4.74
2018-11-04T01:04:46.161Z,4.93
2018-11-04T01:08:02.096Z,4.95
2018-11-04T01:11:18.744Z,5.04
2018-11-04T01:14:35.155Z,4.94
2018-11-04T01:17:59.033Z,5.21
2018-11-04T01:21:22.750Z,5.22
2018-11-04T01:24:39.454Z,5.47
2018-11-04T01:27:55.955Z,5.25
2018-11-04T01:31:00.775Z,5.56
2018-11-04T01:34:05.660Z,5.65
2018-11-04T01:37:29.377Z,5.80
2018-11-04T01:40:53.071Z,5.75
2018-11-04T01:44:11.829Z,5.82
2018-11-04T01:47:27.936Z,5.80
2018-11-04T01:50:43.651Z,5.84
2018-11-04T01:54:02.504Z,5.78
2018-11-04T01:57:12.155Z,5.77
2018-11-04T02:00:27.906Z,5.87
2018-11-04T02:03:44.159Z,5.91
2018-11-04T02:07:00.051Z,5.84
2018-11-04T02:10:16.156Z,5.65
2018-11-04T02:13:32.681Z,5.74
2018-11-04T02:16:48.536Z,5.78
2018-11-04T02:20:05.196Z,5.71
2018-11-04T02:23:21.744Z,6.02
2018-11-04T02:26:37.651Z,6.04
2018-11-04T02:29:53.672Z,5.96
2018-11-04T02:36:25.467Z,6.12
2018-11-04T02:39:42.022Z,6.16
2018-11-04T02:42:58.632Z,5.98
2018-11-04T02:46:03.888Z,5.96
2018-11-04T02:49:08.725Z,5.90
2018-11-04T02:52:32.141Z,5.87
2018-11-04T02:55:37.018Z,5.93
2018-11-04T02:59:00.816Z,5.93
2018-11-04T03:02:36.378Z,6.05
2018-11-04T03:05:40.359Z,5.97
2018-11-04T03:08:56.123Z,5.94
2018-11-04T03:12:12.153Z,5.89
2018-11-04T03:15:28.508Z,5.84
2018-11-04T03:18:44.272Z,5.81
2018-11-04T03:21:49.087Z,5.96
2018-11-04T03:25:12.788Z,5.96
2018-11-04T03:28:28.848Z,5.98
2018-11-04T03:31:44.643Z,5.67
2018-11-04T03:35:00.429Z,5.34
2018-11-04T03:38:16.223Z,5.77
2018-11-04T03:41:32.517Z,5.59
2018-11-04T03:44:48.442Z,5.59
2018-11-04T03:48:04.674Z,5.60
2018-11-04T03:51:20.507Z,5.46
2018-11-04T03:54:37.058Z,5.39
2018-11-04T03:57:53.062Z,5.48
2018-11-04T04:01:09.227Z,5.59
2018-11-04T04:04:25.178Z,5.49
2018-11-04T04:07:41.222Z,5.57
2018-11-04T04:10:57.394Z,5.86
2018-11-04T04:14:13.764Z,5.69
2018-11-04T04:17:29.503Z,5.39
2018-11-04T04:20:45.440Z,5.25
2018-11-04T04:24:01.374Z,5.06
2018-11-04T04:27:17.404Z,4.79
2018-11-04T04:30:33.997Z,4.65
2018-11-04T04:33:50.073Z,4.62
2018-11-04T04:37:06.610Z,5.02
2018-11-04T04:40:22.310Z,5.05
2018-11-04T04:47:03.093Z,4.90
2018-11-04T04:50:19.427Z,5.18
2018-11-04T04:53:35.201Z,5.38
2018-11-04T04:56:50.947Z,5.75
2018-11-04T05:00:06.869Z,5.74
2018-11-04T05:03:23.018Z,5.79
2018-11-04T05:06:39.601Z,5.85
2018-11-04T05:09:55.991Z,5.74
2018-11-04T05:13:12.469Z,5.98
2018-11-04T05:16:28.625Z,5.93
2018-11-04T05:19:45.177Z,6.05
2018-11-04T05:23:01.475Z,6.19
2018-11-04T05:26:17.404Z,6.27
2018-11-04T05:29:33.383Z,6.26
2018-11-04T05:32:49.129Z,6.40
2018-11-04T05:36:05.019Z,6.67
2018-11-04T05:39:21.034Z,6.61
2018-11-04T05:42:37.044Z,6.50
2018-11-04T05:45:53.633Z,6.39
2018-11-04T05:49:09.448Z,6.30
2018-11-04T05:52:25.253Z,6.15
2018-11-04T05:55:43.339Z,6.28
2018-11-04T05:58:59.780Z,6.07
2018-11-04T06:02:15.708Z,6.04
2018-11-04T06:05:31.589Z,5.91
2018-11-04T06:08:48.232Z,5.82
2018-11-04T06:12:04.040Z,5.68
2018-11-04T06:15:09.655Z,5.67
2018-11-04T06:18:14.515Z,5.64
2018-11-04T06:21:38.282Z,5.63
2018-11-04T06:25:02.025Z,5.66
2018-11-04T06:28:18.516Z,5.66
2018-11-04T06:31:34.579Z,5.69
2018-11-04T06:34:51.010Z,5.76
2018-11-04T06:38:07.209Z,5.79
2018-11-04T06:41:23.091Z,5.87
2018-11-04T06:44:39.331Z,5.90
2018-11-04T06:47:55.663Z,5.89
2018-11-04T06:51:11.434Z,5.90
2018-11-04T06:54:16.306Z,5.98
2018-11-04T07:00:56.919Z,6.12
2018-11-04T07:04:13.430Z,6.11
2018-11-04T07:07:18.305Z,5.90
2018-11-04T07:10:56.200Z,5.80
2018-11-04T07:13:58.359Z,5.64
2018-11-04T07:17:14.152Z,5.41
2018-11-04T07:20:19.343Z,5.39
2018-11-04T07:23:43.069Z,5.36
2018-11-04T07:27:06.956Z,5.48
2018-11-04T07:30:23.452Z,5.67
2018-11-04T07:33:39.971Z,5.74
2018-11-04T07:36:44.815Z,6.28
2018-11-04T07:39:49.689Z,6.12
2018-11-04T07:42:54.596Z,6.09
2018-11-04T07:45:59.392Z,6.21
2018-11-04T07:49:04.289Z,6.11
2018-11-04T07:52:09.189Z,6.43
2018-11-04T07:55:14.135Z,6.86
2018-11-04T07:58:18.954Z,7.45
2018-11-04T08:01:24.162Z,7.78
2018-11-04T08:04:29.007Z,8.00
2018-11-04T08:07:33.798Z,7.69
2018-11-04T08:10:38.647Z,7.32
2018-11-04T08:13:43.571Z,7.24
2018-11-04T08:16:48.340Z,6.95
2018-11-04T08:19:53.161Z,6.82
2018-11-04T08:22:58.061Z,6.94
2018-11-04T08:26:02.826Z,7.48
2018-11-04T08:29:07.667Z,7.69
2018-11-04T08:32:12.487Z,7.84
2018-11-04T08:35:17.385Z,8.02
2018-11-04T08:38:22.306Z,8.04
2018-11-04T08:41:27.251Z,8.53
2018-11-04T08:44:32.081Z,8.74
2018-11-04T08:47:36.967Z,8.96
2018-11-04T08:50:41.908Z,9.26
2018-11-04T08:53:46.776Z,9.20
2018-11-04T08:56:51.606Z,9.30
2018-11-04T08:59:56.502Z,9.31
2018-11-04T09:03:01.298Z,9.45
2018-11-04T09:06:06.283Z,9.49
2018-11-04T09:09:11.091Z,9.67
2018-11-04T09:12:16.032Z,9.82
2018-11-04T09:15:20.893Z,9.89
2018-11-04T09:18:25.778Z,9.72
2018-11-04T09:21:30.682Z,9.71
2018-11-04T09:24:35.592Z,9.88
2018-11-04T09:27:40.405Z,9.70
2018-11-04T09:30:45.382Z,9.76
2018-11-04T09:33:50.223Z,9.92
2018-11-04T09:36:55.093Z,9.83
2018-11-04T09:40:00.111Z,9.83
2018-11-04T09:43:05.601Z,10.20
2018-11-04T09:46:10.520Z,9.94
2018-11-04T09:49:15.360Z,10.03
2018-11-04T09:52:20.263Z,10.18
2018-11-04T09:55:25.106Z,10.31
2018-11-04T09:58:30.247Z,10.44
2018-11-04T10:01:35.111Z,10.50
2018-11-04T10:04:40.009Z,10.83
2018-11-04T10:07:44.812Z,10.85
2018-11-04T10:10:49.637Z,10.78
2018-11-04T10:13:54.553Z,10.84
2018-11-04T10:16:59.398Z,10.75
2018-11-04T10:20:04.468Z,10.59
2018-11-04T10:23:09.091Z,10.98
2018-11-04T10:26:13.896Z,11.01
2018-11-04T10:29:18.716Z,11.03
2018-11-04T10:32:23.525Z,10.89
2018-11-04T10:35:28.364Z,11.05
2018-11-04T10:38:33.241Z,10.92
2018-11-04T10:41:38.038Z,11.03
2018-11-04T10:44:42.935Z,11.34
2018-11-04T10:47:48.133Z,11.17
2018-11-04T10:50:53.000Z,11.47
2018-11-04T10:53:57.924Z,11.34
2018-11-04T10:57:02.913Z,11.68
2018-11-04T11:00:28.430Z,11.60
2018-11-04T11:03:33.294Z,11.48
2018-11-04T11:06:38.538Z,11.55
2018-11-04T11:09:43.439Z,11.48
2018-11-04T11:12:48.280Z,11.48
2018-11-04T11:15:53.151Z,11.23
2018-11-04T11:18:58.017Z,11.16
2018-11-04T11:22:03.078Z,11.25
2018-11-04T11:25:08.719Z,11.32
2018-11-04T11:28:13.972Z,11.44
2018-11-04T11:31:18.899Z,11.39
2018-11-04T11:34:23.685Z,11.30
2018-11-04T11:37:28.691Z,11.26
2018-11-04T11:40:33.430Z,11.46
2018-11-04T11:43:38.295Z,11.51
2018-11-04T11:46:43.134Z,11.53
2018-11-04T11:49:47.964Z,11.57
2018-11-04T11:52:52.868Z,11.55
2018-11-04T11:55:57.788Z,11.40
2018-11-04T11:59:02.856Z,11.61
2018-11-04T12:02:07.753Z,11.46
2018-11-04T12:05:12.620Z,11.39
2018-11-04T12:08:17.474Z,11.53
2018-11-04T12:11:22.389Z,11.61
2018-11-04T12:14:27.240Z,11.83
2018-11-04T12:17:32.095Z,11.87
2018-11-04T12:20:36.919Z,12.18
2018-11-04T12:23:41.851Z,11.84
2018-11-04T12:26:46.700Z,11.96
2018-11-04T12:29:51.873Z,11.90
2018-11-04T12:32:56.762Z,12.00
2018-11-04T12:36:01.615Z,11.73
2018-11-04T12:39:08.248Z,11.89
2018-11-04T12:42:13.101Z,11.87
2018-11-04T12:45:18.063Z,11.89
2018-11-04T12:48:22.901Z,11.86
2018-11-04T12:51:27.749Z,11.87
2018-11-04T12:54:32.618Z,11.87
2018-11-04T12:57:37.514Z,11.87
2018-11-04T13:00:42.492Z,11.96
2018-11-04T13:03:47.719Z,11.76
2018-11-04T13:06:52.617Z,11.99
2018-11-04T13:09:57.527Z,11.93
2018-11-04T13:13:02.431Z,12.02
2018-11-04T13:16:07.408Z,12.34
2018-11-04T13:19:12.376Z,12.21
2018-11-04T13:22:17.190Z,12.02
2018-11-04T13:25:22.044Z,12.07
2018-11-04T13:28:27.256Z,12.12
2018-11-04T13:31:32.068Z,12.16
2018-11-04T13:34:36.950Z,12.11
2018-11-04T13:37:41.767Z,11.97
2018-11-04T13:40:46.663Z,12.10
2018-11-04T13:43:51.544Z,11.76
2018-11-04T13:46:56.414Z,11.71
2018-11-04T13:50:01.339Z,11.74
2018-11-04T13:53:06.345Z,11.77
2018-11-04T13:56:11.306Z,11.76
2018-11-04T13:59:16.164Z,11.99
2018-11-04T14:02:21.002Z,12.01
2018-11-04T14:05:25.868Z,11.83
2018-11-04T14:08:30.743Z,11.72
2018-11-04T14:11:35.587Z,11.83
2018-11-04T14:14:40.486Z,12.00
2018-11-04T14:17:45.380Z,11.91
2018-11-04T14:20:50.349Z,12.13
2018-11-04T14:23:55.246Z,11.86
2018-11-04T14:27:00.103Z,11.79
2018-11-04T14:30:05.002Z,11.72
2018-11-04T14:33:10.010Z,11.58
2018-11-04T14:36:15.301Z,11.67
2018-11-04T14:39:20.191Z,11.46
2018-11-04T14:42:25.090Z,11.34
2018-11-04T14:45:30.015Z,11.40
2018-11-04T14:48:34.856Z,11.41
2018-11-04T14:51:40.056Z,11.45
2018-11-04T14:54:44.919Z,11.62
2018-11-04T14:57:50.724Z,11.41
2018-11-04T15:00:55.703Z,11.29
2018-11-04T15:04:00.554Z,11.28
2018-11-04T15:07:05.641Z,11.26
2018-11-04T15:10:12.776Z,11.31
2018-11-04T15:13:17.671Z,11.26
2018-11-04T15:16:22.545Z,11.25
2018-11-04T15:19:27.465Z,11.10
2018-11-04T15:22:32.356Z,11.00
2018-11-04T15:25:37.232Z,11.04
2018-11-04T15:28:42.161Z,11.03
2018-11-04T15:31:47.045Z,10.96
2018-11-04T15:34:52.333Z,10.94
2018-11-04T15:37:57.164Z,10.82
2018-11-04T15:41:02.064Z,10.70
2018-11-04T15:44:07.256Z,10.63
2018-11-04T15:47:12.146Z,10.56
2018-11-04T15:50:20.500Z,10.53
2018-11-04T15:53:25.347Z,10.41
2018-11-04T15:56:30.294Z,10.22
2018-11-04T15:59:35.421Z,10.09
2018-11-04T16:02:40.702Z,9.92
2018-11-04T16:05:45.466Z,9.90
2018-11-04T16:08:50.322Z,9.69
2018-11-04T16:11:55.173Z,9.50
2018-11-04T16:15:00.173Z,9.41
2018-11-04T16:18:04.961Z,9.30
2018-11-04T16:21:10.003Z,9.29
2018-11-04T16:24:15.233Z,9.08
2018-11-04T16:27:20.102Z,9.05
2018-11-04T16:30:24.963Z,8.89
2018-11-04T16:33:30.241Z,8.98
2018-11-04T16:36:35.076Z,9.09
2018-11-04T16:39:40.011Z,9.07
2018-11-04T16:42:44.857Z,9.00
2018-11-04T16:45:49.756Z,8.96
2018-11-04T16:48:54.591Z,8.93
2018-11-04T16:51:59.571Z,9.11
2018-11-04T16:55:04.437Z,9.10
2018-11-04T16:58:09.335Z,9.10
2018-11-04T17:01:14.244Z,9.19
2018-11-04T17:04:19.358Z,9.42
2018-11-04T17:07:24.033Z,9.51
2018-11-04T17:10:29.009Z,9.56
2018-11-04T17:13:33.907Z,9.75
2018-11-04T17:16:38.765Z,9.70
2018-11-04T17:19:43.534Z,9.74
2018-11-04T17:22:48.601Z,9.91
2018-11-04T17:25:53.531Z,10.00
2018-11-04T17:28:58.864Z,10.03
2018-11-04T17:32:03.773Z,10.09
2018-11-04T17:35:10.281Z,10.06
2018-11-04T17:38:15.456Z,10.06
2018-11-04T17:41:20.393Z,10.08
2018-11-04T17:44:25.349Z,10.15
2018-11-04T17:47:30.234Z,10.09
2018-11-04T17:50:35.152Z,10.11
2018-11-04T17:53:40.062Z,10.19
2018-11-04T17:56:44.921Z,10.16
2018-11-04T17:59:49.836Z,10.16
2018-11-04T18:02:54.887Z,10.14
2018-11-04T18:05:59.754Z,10.14
2018-11-04T18:09:05.368Z,10.18
2018-11-04T18:12:10.337Z,10.16
2018-11-04T18:15:15.942Z,10.22
2018-11-04T18:18:20.836Z,10.26
2018-11-04T18:21:25.889Z,10.21
2018-11-04T18:24:30.817Z,10.11
2018-11-04T18:27:35.864Z,10.06
2018-11-04T18:30:40.774Z,10.19
2018-11-04T18:33:45.752Z,10.12
2018-11-04T18:36:50.612Z,10.08
2018-11-04T18:39:55.586Z,10.03
2018-11-04T18:43:00.846Z,10.09
2018-11-04T18:46:05.768Z,10.05
2018-11-04T18:49:10.793Z,10.07
2018-11-04T18:52:16.004Z,10.05
2018-11-04T18:55:20.946Z,9.90
2018-11-04T18:58:25.963Z,9.98
2018-11-04T19:01:30.805Z,9.97
2018-11-04T19:04:35.775Z,9.89
2018-11-04T19:07:40.844Z,9.84
2018-11-04T19:10:45.791Z,9.79
2018-11-04T19:13:50.678Z,9.78
2018-11-04T19:16:55.571Z,9.70
2018-11-04T19:20:00.825Z,9.71
2018-11-04T19:23:05.853Z,9.84
2018-11-04T19:26:10.705Z,9.93
2018-11-04T19:29:15.615Z,9.85
2018-11-04T19:32:20.522Z,9.81
2018-11-04T19:35:25.464Z,9.76
2018-11-04T19:38:30.394Z,9.88
2018-11-04T19:41:35.412Z,9.74
2018-11-04T19:44:40.431Z,9.68
2018-11-04T19:47:45.514Z,9.85
2018-11-04T19:50:50.518Z,9.78
2018-11-04T19:53:55.438Z,9.90
2018-11-04T19:57:00.419Z,9.79
2018-11-04T20:00:06.179Z,9.90
2018-11-04T20:03:11.142Z,9.92
2018-11-04T20:06:16.060Z,9.91
2018-11-04T20:09:21.167Z,9.95
2018-11-04T20:12:43.095Z,9.85
2018-11-04T20:15:48.083Z,9.85
2018-11-04T20:19:09.824Z,9.70
2018-11-04T20:22:14.666Z,9.74
2018-11-04T20:25:37.216Z,9.64
2018-11-04T20:28:42.037Z,9.57
2018-11-04T20:32:04.119Z,9.53
2018-11-04T20:35:09.059Z,9.52
2018-11-04T20:38:13.963Z,9.57
2018-11-04T20:41:34.336Z,9.47
2018-11-04T20:44:45.344Z,9.45
2018-11-04T20:48:07.126Z,9.53
2018-11-04T20:51:12.120Z,9.50
2018-11-04T20:54:17.024Z,9.50
2018-11-04T20:57:36.777Z,9.60
2018-11-04T21:00:41.731Z,9.56
2018-11-04T21:03:46.620Z,9.47
2018-11-04T21:06:51.574Z,9.46
2018-11-04T21:09:56.625Z,9.65
2018-11-04T21:13:01.328Z,9.53
2018-11-04T21:16:06.484Z,9.63
2018-11-04T21:19:11.301Z,9.70
2018-11-04T21:22:16.196Z,9.70
2018-11-04T21:25:21.069Z,9.66
2018-11-04T21:28:26.175Z,9.68
2018-11-04T21:31:30.975Z,9.77
2018-11-04T21:34:35.888Z,9.62
2018-11-04T21:37:40.903Z,9.63
2018-11-04T21:40:45.768Z,9.67
2018-11-04T21:43:50.923Z,9.61
2018-11-04T21:46:55.613Z,9.57
2018-11-04T21:50:00.581Z,9.57
2018-11-04T21:53:05.431Z,9.57
2018-11-04T21:56:10.613Z,9.61
2018-11-04T21:59:15.360Z,9.52
2018-11-04T22:02:20.338Z,9.60
2018-11-04T22:05:25.066Z,9.55
2018-11-04T22:08:29.995Z,9.49
2018-11-04T22:11:35.226Z,9.54
2018-11-04T22:14:40.071Z,9.54
2018-11-04T22:17:44.986Z,9.56
2018-11-04T22:20:49.860Z,9.68
2018-11-04T22:23:54.927Z,9.56
2018-11-04T22:26:59.846Z,9.59
2018-11-04T22:30:04.682Z,9.54
2018-11-04T22:33:09.582Z,9.50
2018-11-04T22:36:14.450Z,9.45
2018-11-04T22:39:19.339Z,9.54
2018-11-04T22:42:24.374Z,9.50
2018-11-04T22:45:29.200Z,9.65
2018-11-04T22:48:34.080Z,9.48
2018-11-04T22:51:38.980Z,9.64
2018-11-04T22:54:43.851Z,9.52
2018-11-04T22:57:48.755Z,9.49
2018-11-04T23:00:59.725Z,9.45
2018-11-04T23:04:04.730Z,9.50
2018-11-04T23:07:09.752Z,9.56
2018-11-04T23:10:14.701Z,9.52
2018-11-04T23:13:19.576Z,9.39
2018-11-04T23:16:24.528Z,9.54
2018-11-04T23:19:29.462Z,9.49
2018-11-04T23:22:34.333Z,9.61
2018-11-04T23:25:39.177Z,9.44
2018-11-04T23:28:44.046Z,9.50
2018-11-04T23:31:48.840Z,9.57
2018-11-04T23:34:53.786Z,9.45
2018-11-04T23:37:58.948Z,9.52
2018-11-04T23:41:03.786Z,9.56
2018-11-04T23:44:08.660Z,9.37
2018-11-04T23:47:13.508Z,9.46
2018-11-04T23:50:18.480Z,9.50
2018-11-04T23:53:23.291Z,9.37
2018-11-04T23:56:28.186Z,9.44
2018-11-04T23:59:33.072Z,9.46
